sensor_id;sensor_type;location;lat;lon;timestamp;temperature;humidity
18934;DHT22;9599;53.706;10.384;2023-02-15T00:02:02;3.80;99.90
18934;DHT22;9599;53.706;10.384;2023-02-15T00:04:30;3.80;99.90
18934;DHT22;9599;53.706;10.384;2023-02-15T00:07:26;3.70;99.90
18934;DHT22;9599;53.706;10.384;2023-02-15T00:09:54;3.70;99.90
18934;DHT22;9599;53.706;10.384;2023-02-15T00:12:22;3.70;99.90
18934;DHT22;9599;53.706;10.384;2023-02-15T00:14:49;3.80;99.90
18934;DHT22;9599;53.706;10.384;2023-02-15T00:17:17;3.80;99.90
18934;DHT22;9599;53.706;10.384;2023-02-15T00:19:45;3.90;99.90
18934;DHT22;9599;53.706;10.384;2023-02-15T00:22:13;3.90;99.90
18934;DHT22;9599;53.706;10.384;2023-02-15T00:24:42;4.00;99.90
18934;DHT22;9599;53.706;10.384;2023-02-15T00:27:10;4.00;99.90
18934;DHT22;9599;53.706;10.384;2023-02-15T00:29:38;4.00;99.90
18934;DHT22;9599;53.706;10.384;2023-02-15T00:32:06;4.10;99.90
18934;DHT22;9599;53.706;10.384;2023-02-15T00:34:34;4.10;99.90
18934;DHT22;9599;53.706;10.384;2023-02-15T00:37:02;4.10;99.90
18934;DHT22;9599;53.706;10.384;2023-02-15T00:39:30;4.10;99.90
18934;DHT22;9599;53.706;10.384;2023-02-15T00:41:59;4.00;99.90
18934;DHT22;9599;53.706;10.384;2023-02-15T00:44:27;4.10;99.90
18934;DHT22;9599;53.706;10.384;2023-02-15T00:46:55;4.10;99.90
18934;DHT22;9599;53.706;10.384;2023-02-15T00:49:23;4.10;99.90
18934;DHT22;9599;53.706;10.384;2023-02-15T00:51:52;4.20;99.90
18934;DHT22;9599;53.706;10.384;2023-02-15T00:54:20;4.10;99.90
18934;DHT22;9599;53.706;10.384;2023-02-15T00:56:49;4.10;99.90
18934;DHT22;9599;53.706;10.384;2023-02-15T00:59:18;4.10;99.90
18934;DHT22;9599;53.706;10.384;2023-02-15T01:01:47;4.20;99.90
18934;DHT22;9599;53.706;10.384;2023-02-15T01:04:15;4.10;99.90
18934;DHT22;9599;53.706;10.384;2023-02-15T01:06:43;4.20;99.90
18934;DHT22;9599;53.706;10.384;2023-02-15T01:09:11;4.20;99.90
18934;DHT22;9599;53.706;10.384;2023-02-15T01:11:40;4.20;99.90
18934;DHT22;9599;53.706;10.384;2023-02-15T01:14:08;4.20;99.90
18934;DHT22;9599;53.706;10.384;2023-02-15T01:16:39;4.10;99.90
18934;DHT22;9599;53.706;10.384;2023-02-15T01:19:07;4.10;99.90
18934;DHT22;9599;53.706;10.384;2023-02-15T01:21:35;4.10;99.90
18934;DHT22;9599;53.706;10.384;2023-02-15T01:24:03;4.20;99.90
18934;DHT22;9599;53.706;10.384;2023-02-15T01:26:31;4.20;99.90
18934;DHT22;9599;53.706;10.384;2023-02-15T01:28:58;4.20;99.90
18934;DHT22;9599;53.706;10.384;2023-02-15T01:31:26;4.10;99.90
18934;DHT22;9599;53.706;10.384;2023-02-15T01:33:56;4.00;99.90
18934;DHT22;9599;53.706;10.384;2023-02-15T01:36:24;4.00;99.90
18934;DHT22;9599;53.706;10.384;2023-02-15T01:38:51;4.00;99.90
18934;DHT22;9599;53.706;10.384;2023-02-15T01:41:19;4.00;99.90
18934;DHT22;9599;53.706;10.384;2023-02-15T01:43:51;4.00;99.90
18934;DHT22;9599;53.706;10.384;2023-02-15T01:46:23;4.10;99.90
18934;DHT22;9599;53.706;10.384;2023-02-15T01:48:56;4.10;99.90
18934;DHT22;9599;53.706;10.384;2023-02-15T01:51:27;4.10;99.90
18934;DHT22;9599;53.706;10.384;2023-02-15T01:54:00;4.10;99.90
18934;DHT22;9599;53.706;10.384;2023-02-15T01:56:32;4.10;99.90
18934;DHT22;9599;53.706;10.384;2023-02-15T01:59:05;4.20;99.90
18934;DHT22;9599;53.706;10.384;2023-02-15T02:01:33;4.20;99.90
18934;DHT22;9599;53.706;10.384;2023-02-15T02:04:08;4.20;99.90
18934;DHT22;9599;53.706;10.384;2023-02-15T02:06:37;4.20;99.90
18934;DHT22;9599;53.706;10.384;2023-02-15T02:09:06;4.10;99.90
18934;DHT22;9599;53.706;10.384;2023-02-15T02:11:35;4.10;99.90
18934;DHT22;9599;53.706;10.384;2023-02-15T02:14:03;4.10;99.90
18934;DHT22;9599;53.706;10.384;2023-02-15T02:16:39;4.10;99.90
18934;DHT22;9599;53.706;10.384;2023-02-15T02:25:39;4.00;99.90
18934;DHT22;9599;53.706;10.384;2023-02-15T02:28:25;3.90;99.90
18934;DHT22;9599;53.706;10.384;2023-02-15T02:31:28;3.90;99.90
18934;DHT22;9599;53.706;10.384;2023-02-15T02:34:04;4.00;99.90
18934;DHT22;9599;53.706;10.384;2023-02-15T02:36:39;4.00;99.90
18934;DHT22;9599;53.706;10.384;2023-02-15T02:39:18;4.00;99.90
18934;DHT22;9599;53.706;10.384;2023-02-15T02:41:56;4.00;99.90
18934;DHT22;9599;53.706;10.384;2023-02-15T02:44:31;4.00;99.90
18934;DHT22;9599;53.706;10.384;2023-02-15T02:47:05;4.10;99.90
18934;DHT22;9599;53.706;10.384;2023-02-15T02:49:39;4.00;99.90
18934;DHT22;9599;53.706;10.384;2023-02-15T02:52:38;4.00;99.90
18934;DHT22;9599;53.706;10.384;2023-02-15T02:55:11;4.00;99.90
18934;DHT22;9599;53.706;10.384;2023-02-15T02:57:45;4.00;99.90
18934;DHT22;9599;53.706;10.384;2023-02-15T03:00:15;4.00;99.90
18934;DHT22;9599;53.706;10.384;2023-02-15T03:02:47;3.90;99.90
18934;DHT22;9599;53.706;10.384;2023-02-15T03:05:21;3.90;99.90
18934;DHT22;9599;53.706;10.384;2023-02-15T03:07:53;3.90;99.90
18934;DHT22;9599;53.706;10.384;2023-02-15T03:10:24;3.90;99.90
18934;DHT22;9599;53.706;10.384;2023-02-15T03:12:52;3.90;99.90
18934;DHT22;9599;53.706;10.384;2023-02-15T03:15:22;3.90;99.90
18934;DHT22;9599;53.706;10.384;2023-02-15T03:17:57;3.90;99.90
18934;DHT22;9599;53.706;10.384;2023-02-15T03:20:33;3.80;99.90
18934;DHT22;9599;53.706;10.384;2023-02-15T03:23:06;3.70;99.90
18934;DHT22;9599;53.706;10.384;2023-02-15T03:25:38;3.70;99.90
18934;DHT22;9599;53.706;10.384;2023-02-15T03:28:11;3.70;99.90
18934;DHT22;9599;53.706;10.384;2023-02-15T03:30:42;3.70;99.90
18934;DHT22;9599;53.706;10.384;2023-02-15T03:33:11;3.60;99.90
18934;DHT22;9599;53.706;10.384;2023-02-15T03:35:47;3.60;99.90
18934;DHT22;9599;53.706;10.384;2023-02-15T03:38:20;3.60;99.90
18934;DHT22;9599;53.706;10.384;2023-02-15T03:40:49;3.60;99.90
18934;DHT22;9599;53.706;10.384;2023-02-15T03:43:41;3.60;99.90
18934;DHT22;9599;53.706;10.384;2023-02-15T03:46:15;3.60;99.90
18934;DHT22;9599;53.706;10.384;2023-02-15T03:48:47;3.60;99.90
18934;DHT22;9599;53.706;10.384;2023-02-15T03:51:21;3.60;99.90
18934;DHT22;9599;53.706;10.384;2023-02-15T03:54:05;3.60;99.90
18934;DHT22;9599;53.706;10.384;2023-02-15T03:56:36;3.60;99.90
18934;DHT22;9599;53.706;10.384;2023-02-15T03:59:04;3.70;99.90
18934;DHT22;9599;53.706;10.384;2023-02-15T04:01:58;3.70;99.90
18934;DHT22;9599;53.706;10.384;2023-02-15T04:04:33;3.60;99.90
18934;DHT22;9599;53.706;10.384;2023-02-15T04:07:04;3.50;99.90
18934;DHT22;9599;53.706;10.384;2023-02-15T04:09:33;3.50;99.90
18934;DHT22;9599;53.706;10.384;2023-02-15T04:12:18;3.40;99.90
18934;DHT22;9599;53.706;10.384;2023-02-15T04:14:46;3.30;99.90
18934;DHT22;9599;53.706;10.384;2023-02-15T04:17:32;3.30;99.90
18934;DHT22;9599;53.706;10.384;2023-02-15T04:20:00;3.40;99.90
18934;DHT22;9599;53.706;10.384;2023-02-15T04:22:47;3.40;99.90
18934;DHT22;9599;53.706;10.384;2023-02-15T04:25:32;3.40;99.90
18934;DHT22;9599;53.706;10.384;2023-02-15T04:28:00;3.40;99.90
18934;DHT22;9599;53.706;10.384;2023-02-15T04:30:28;3.50;99.90
18934;DHT22;9599;53.706;10.384;2023-02-15T04:32:56;3.40;99.90
18934;DHT22;9599;53.706;10.384;2023-02-15T04:35:24;3.50;99.90
18934;DHT22;9599;53.706;10.384;2023-02-15T04:37:53;3.50;99.90
18934;DHT22;9599;53.706;10.384;2023-02-15T04:40:22;3.40;99.90
18934;DHT22;9599;53.706;10.384;2023-02-15T04:42:50;3.40;99.90
18934;DHT22;9599;53.706;10.384;2023-02-15T04:45:18;3.40;99.90
18934;DHT22;9599;53.706;10.384;2023-02-15T04:47:46;3.30;99.90
18934;DHT22;9599;53.706;10.384;2023-02-15T04:50:14;3.30;99.90
18934;DHT22;9599;53.706;10.384;2023-02-15T04:52:41;3.30;99.90
18934;DHT22;9599;53.706;10.384;2023-02-15T04:55:11;3.20;99.90
18934;DHT22;9599;53.706;10.384;2023-02-15T04:57:38;3.30;99.90
18934;DHT22;9599;53.706;10.384;2023-02-15T05:00:10;3.20;99.90
18934;DHT22;9599;53.706;10.384;2023-02-15T05:02:39;3.20;99.90
18934;DHT22;9599;53.706;10.384;2023-02-15T05:05:07;3.20;99.90
18934;DHT22;9599;53.706;10.384;2023-02-15T05:07:36;3.20;99.90
18934;DHT22;9599;53.706;10.384;2023-02-15T05:10:04;3.20;99.90
18934;DHT22;9599;53.706;10.384;2023-02-15T05:12:34;3.20;99.90
18934;DHT22;9599;53.706;10.384;2023-02-15T05:15:01;3.20;99.90
18934;DHT22;9599;53.706;10.384;2023-02-15T05:17:29;3.20;99.90
18934;DHT22;9599;53.706;10.384;2023-02-15T05:19:57;3.20;99.90
18934;DHT22;9599;53.706;10.384;2023-02-15T05:22:25;3.30;99.90
18934;DHT22;9599;53.706;10.384;2023-02-15T05:24:53;3.30;99.90
18934;DHT22;9599;53.706;10.384;2023-02-15T05:27:40;3.30;99.90
18934;DHT22;9599;53.706;10.384;2023-02-15T05:30:25;3.20;99.90
18934;DHT22;9599;53.706;10.384;2023-02-15T05:32:53;3.10;99.90
18934;DHT22;9599;53.706;10.384;2023-02-15T05:35:21;3.00;99.90
18934;DHT22;9599;53.706;10.384;2023-02-15T05:37:49;3.00;99.90
18934;DHT22;9599;53.706;10.384;2023-02-15T05:40:17;3.10;99.90
18934;DHT22;9599;53.706;10.384;2023-02-15T05:42:46;3.10;99.90
18934;DHT22;9599;53.706;10.384;2023-02-15T05:45:14;3.20;99.90
18934;DHT22;9599;53.706;10.384;2023-02-15T05:47:43;3.20;99.90
18934;DHT22;9599;53.706;10.384;2023-02-15T05:50:11;3.20;99.90
18934;DHT22;9599;53.706;10.384;2023-02-15T05:52:39;3.20;99.90
18934;DHT22;9599;53.706;10.384;2023-02-15T05:55:07;3.20;99.90
18934;DHT22;9599;53.706;10.384;2023-02-15T05:57:36;3.20;99.90
18934;DHT22;9599;53.706;10.384;2023-02-15T06:00:06;3.30;99.90
18934;DHT22;9599;53.706;10.384;2023-02-15T06:02:39;3.30;99.90
18934;DHT22;9599;53.706;10.384;2023-02-15T06:05:07;3.30;99.90
18934;DHT22;9599;53.706;10.384;2023-02-15T06:07:35;3.20;99.90
18934;DHT22;9599;53.706;10.384;2023-02-15T06:10:04;3.20;99.90
18934;DHT22;9599;53.706;10.384;2023-02-15T06:12:32;3.10;99.90
18934;DHT22;9599;53.706;10.384;2023-02-15T06:15:00;3.10;99.90
18934;DHT22;9599;53.706;10.384;2023-02-15T06:17:29;3.10;99.90
18934;DHT22;9599;53.706;10.384;2023-02-15T06:19:57;3.20;99.90
18934;DHT22;9599;53.706;10.384;2023-02-15T06:22:25;3.20;99.90
18934;DHT22;9599;53.706;10.384;2023-02-15T06:24:53;3.30;99.90
18934;DHT22;9599;53.706;10.384;2023-02-15T06:27:21;3.20;99.90
18934;DHT22;9599;53.706;10.384;2023-02-15T06:29:49;3.20;99.90
18934;DHT22;9599;53.706;10.384;2023-02-15T06:32:17;3.10;99.90
18934;DHT22;9599;53.706;10.384;2023-02-15T06:34:46;3.20;99.90
18934;DHT22;9599;53.706;10.384;2023-02-15T06:37:14;3.10;99.90
18934;DHT22;9599;53.706;10.384;2023-02-15T06:39:42;3.00;99.90
18934;DHT22;9599;53.706;10.384;2023-02-15T06:42:11;3.00;99.90
18934;DHT22;9599;53.706;10.384;2023-02-15T06:44:38;3.00;99.90
18934;DHT22;9599;53.706;10.384;2023-02-15T06:47:06;3.10;99.90
18934;DHT22;9599;53.706;10.384;2023-02-15T06:49:34;3.10;99.90
18934;DHT22;9599;53.706;10.384;2023-02-15T06:52:04;3.00;99.90
18934;DHT22;9599;53.706;10.384;2023-02-15T06:54:32;3.00;99.90
18934;DHT22;9599;53.706;10.384;2023-02-15T06:57:00;3.00;99.90
18934;DHT22;9599;53.706;10.384;2023-02-15T06:59:28;3.00;99.90
18934;DHT22;9599;53.706;10.384;2023-02-15T07:01:56;2.90;99.90
18934;DHT22;9599;53.706;10.384;2023-02-15T07:04:24;2.80;99.90
18934;DHT22;9599;53.706;10.384;2023-02-15T07:06:52;2.70;99.90
18934;DHT22;9599;53.706;10.384;2023-02-15T07:09:21;2.50;99.90
18934;DHT22;9599;53.706;10.384;2023-02-15T07:11:51;2.40;99.90
18934;DHT22;9599;53.706;10.384;2023-02-15T07:14:38;2.40;99.90
18934;DHT22;9599;53.706;10.384;2023-02-15T07:17:07;2.40;99.90
18934;DHT22;9599;53.706;10.384;2023-02-15T07:19:55;2.50;99.90
18934;DHT22;9599;53.706;10.384;2023-02-15T07:22:22;2.60;99.90
18934;DHT22;9599;53.706;10.384;2023-02-15T07:24:52;2.70;99.90
18934;DHT22;9599;53.706;10.384;2023-02-15T07:27:22;2.80;99.90
18934;DHT22;9599;53.706;10.384;2023-02-15T07:29:50;2.90;99.90
18934;DHT22;9599;53.706;10.384;2023-02-15T07:32:18;2.90;99.90
18934;DHT22;9599;53.706;10.384;2023-02-15T07:34:46;3.00;99.90
18934;DHT22;9599;53.706;10.384;2023-02-15T07:37:14;3.00;99.90
18934;DHT22;9599;53.706;10.384;2023-02-15T07:39:42;2.90;99.90
18934;DHT22;9599;53.706;10.384;2023-02-15T07:42:11;2.80;99.90
18934;DHT22;9599;53.706;10.384;2023-02-15T07:44:40;2.80;99.90
18934;DHT22;9599;53.706;10.384;2023-02-15T07:47:07;2.70;99.90
18934;DHT22;9599;53.706;10.384;2023-02-15T07:49:35;2.70;99.90
18934;DHT22;9599;53.706;10.384;2023-02-15T07:52:04;2.80;99.90
18934;DHT22;9599;53.706;10.384;2023-02-15T07:54:32;2.90;99.90
18934;DHT22;9599;53.706;10.384;2023-02-15T07:57:00;3.00;99.90
18934;DHT22;9599;53.706;10.384;2023-02-15T07:59:30;3.10;99.90
18934;DHT22;9599;53.706;10.384;2023-02-15T08:01:58;3.10;99.90
18934;DHT22;9599;53.706;10.384;2023-02-15T08:04:26;3.20;99.90
18934;DHT22;9599;53.706;10.384;2023-02-15T08:06:54;3.20;99.90
18934;DHT22;9599;53.706;10.384;2023-02-15T08:09:22;3.10;99.90
18934;DHT22;9599;53.706;10.384;2023-02-15T08:11:50;3.20;99.90
18934;DHT22;9599;53.706;10.384;2023-02-15T08:14:19;3.20;99.90
18934;DHT22;9599;53.706;10.384;2023-02-15T08:16:52;3.20;99.90
18934;DHT22;9599;53.706;10.384;2023-02-15T08:19:23;3.10;99.90
18934;DHT22;9599;53.706;10.384;2023-02-15T08:21:53;3.00;99.90
18934;DHT22;9599;53.706;10.384;2023-02-15T08:24:23;3.10;99.90
18934;DHT22;9599;53.706;10.384;2023-02-15T08:26:51;3.20;99.90
18934;DHT22;9599;53.706;10.384;2023-02-15T08:29:22;3.30;99.90
18934;DHT22;9599;53.706;10.384;2023-02-15T08:31:53;3.30;99.90
18934;DHT22;9599;53.706;10.384;2023-02-15T08:34:22;3.30;99.90
18934;DHT22;9599;53.706;10.384;2023-02-15T08:36:50;3.30;99.90
18934;DHT22;9599;53.706;10.384;2023-02-15T08:39:17;3.30;99.90
18934;DHT22;9599;53.706;10.384;2023-02-15T08:41:46;3.30;99.90
18934;DHT22;9599;53.706;10.384;2023-02-15T08:44:16;3.30;99.90
18934;DHT22;9599;53.706;10.384;2023-02-15T08:46:45;3.30;99.90
18934;DHT22;9599;53.706;10.384;2023-02-15T08:49:16;3.30;99.90
18934;DHT22;9599;53.706;10.384;2023-02-15T08:51:45;3.30;99.90
18934;DHT22;9599;53.706;10.384;2023-02-15T08:54:15;3.30;99.90
18934;DHT22;9599;53.706;10.384;2023-02-15T08:56:43;3.20;99.90
18934;DHT22;9599;53.706;10.384;2023-02-15T08:59:13;3.20;99.90
18934;DHT22;9599;53.706;10.384;2023-02-15T09:01:42;3.20;99.90
18934;DHT22;9599;53.706;10.384;2023-02-15T09:04:10;3.20;99.90
18934;DHT22;9599;53.706;10.384;2023-02-15T09:06:41;3.20;99.90
18934;DHT22;9599;53.706;10.384;2023-02-15T09:09:14;3.20;99.90
18934;DHT22;9599;53.706;10.384;2023-02-15T09:11:43;3.00;99.90
18934;DHT22;9599;53.706;10.384;2023-02-15T09:14:13;2.90;99.90
18934;DHT22;9599;53.706;10.384;2023-02-15T09:16:43;2.80;99.90
18934;DHT22;9599;53.706;10.384;2023-02-15T09:19:12;2.80;99.90
18934;DHT22;9599;53.706;10.384;2023-02-15T09:21:42;2.80;99.90
18934;DHT22;9599;53.706;10.384;2023-02-15T09:24:11;2.90;99.90
18934;DHT22;9599;53.706;10.384;2023-02-15T09:26:41;3.10;99.90
18934;DHT22;9599;53.706;10.384;2023-02-15T09:29:10;3.10;99.90
18934;DHT22;9599;53.706;10.384;2023-02-15T09:31:40;3.10;99.90
18934;DHT22;9599;53.706;10.384;2023-02-15T09:34:11;3.10;99.90
18934;DHT22;9599;53.706;10.384;2023-02-15T09:36:40;3.10;99.90
18934;DHT22;9599;53.706;10.384;2023-02-15T09:39:11;3.10;99.90
18934;DHT22;9599;53.706;10.384;2023-02-15T09:42:06;3.20;99.90
18934;DHT22;9599;53.706;10.384;2023-02-15T09:44:56;3.30;99.90
18934;DHT22;9599;53.706;10.384;2023-02-15T09:47:41;3.10;99.90
18934;DHT22;9599;53.706;10.384;2023-02-15T09:50:19;3.00;99.90
18934;DHT22;9599;53.706;10.384;2023-02-15T09:52:58;3.00;99.90
18934;DHT22;9599;53.706;10.384;2023-02-15T09:55:43;3.30;99.90
18934;DHT22;9599;53.706;10.384;2023-02-15T09:58:20;3.40;99.90
18934;DHT22;9599;53.706;10.384;2023-02-15T10:00:57;3.60;99.90
18934;DHT22;9599;53.706;10.384;2023-02-15T10:03:39;3.70;99.90
18934;DHT22;9599;53.706;10.384;2023-02-15T10:06:27;3.80;99.90
18934;DHT22;9599;53.706;10.384;2023-02-15T10:09:19;3.90;99.90
18934;DHT22;9599;53.706;10.384;2023-02-15T10:12:11;4.00;99.90
18934;DHT22;9599;53.706;10.384;2023-02-15T10:14:56;4.20;99.90
18934;DHT22;9599;53.706;10.384;2023-02-15T10:17:43;4.20;99.90
18934;DHT22;9599;53.706;10.384;2023-02-15T10:20:23;4.20;99.90
18934;DHT22;9599;53.706;10.384;2023-02-15T10:23:09;4.20;99.90
18934;DHT22;9599;53.706;10.384;2023-02-15T10:25:43;4.30;99.90
18934;DHT22;9599;53.706;10.384;2023-02-15T10:28:17;4.10;99.90
18934;DHT22;9599;53.706;10.384;2023-02-15T10:30:47;3.90;99.90
18934;DHT22;9599;53.706;10.384;2023-02-15T10:33:38;3.80;99.90
18934;DHT22;9599;53.706;10.384;2023-02-15T10:36:15;3.70;99.90
18934;DHT22;9599;53.706;10.384;2023-02-15T10:38:50;3.90;99.90
18934;DHT22;9599;53.706;10.384;2023-02-15T10:41:29;4.00;99.90
18934;DHT22;9599;53.706;10.384;2023-02-15T10:44:09;4.00;99.90
18934;DHT22;9599;53.706;10.384;2023-02-15T10:47:03;4.00;99.90
18934;DHT22;9599;53.706;10.384;2023-02-15T10:49:53;4.10;99.90
18934;DHT22;9599;53.706;10.384;2023-02-15T10:52:35;4.00;99.90
18934;DHT22;9599;53.706;10.384;2023-02-15T10:55:11;3.90;99.90
18934;DHT22;9599;53.706;10.384;2023-02-15T10:57:49;3.80;99.90
18934;DHT22;9599;53.706;10.384;2023-02-15T11:00:23;3.90;99.90
18934;DHT22;9599;53.706;10.384;2023-02-15T11:03:05;3.90;99.90
18934;DHT22;9599;53.706;10.384;2023-02-15T11:05:46;3.90;99.90
18934;DHT22;9599;53.706;10.384;2023-02-15T11:08:17;4.00;99.90
18934;DHT22;9599;53.706;10.384;2023-02-15T11:10:49;4.10;99.90
18934;DHT22;9599;53.706;10.384;2023-02-15T11:13:21;4.10;99.90
18934;DHT22;9599;53.706;10.384;2023-02-15T11:15:53;4.20;99.90
18934;DHT22;9599;53.706;10.384;2023-02-15T11:18:26;4.30;99.90
18934;DHT22;9599;53.706;10.384;2023-02-15T11:20:59;4.30;99.90
18934;DHT22;9599;53.706;10.384;2023-02-15T11:23:31;4.30;99.90
18934;DHT22;9599;53.706;10.384;2023-02-15T11:26:03;4.20;99.90
18934;DHT22;9599;53.706;10.384;2023-02-15T11:28:34;4.20;99.90
18934;DHT22;9599;53.706;10.384;2023-02-15T11:31:13;4.30;99.90
18934;DHT22;9599;53.706;10.384;2023-02-15T11:33:45;4.30;99.90
18934;DHT22;9599;53.706;10.384;2023-02-15T11:36:17;4.20;99.90
18934;DHT22;9599;53.706;10.384;2023-02-15T11:38:50;4.20;99.90
18934;DHT22;9599;53.706;10.384;2023-02-15T11:41:22;4.40;99.90
18934;DHT22;9599;53.706;10.384;2023-02-15T11:43:56;4.60;99.90
18934;DHT22;9599;53.706;10.384;2023-02-15T11:46:26;4.70;99.90
18934;DHT22;9599;53.706;10.384;2023-02-15T11:48:55;4.60;99.90
18934;DHT22;9599;53.706;10.384;2023-02-15T11:51:25;4.60;99.90
18934;DHT22;9599;53.706;10.384;2023-02-15T11:53:56;4.60;99.90
18934;DHT22;9599;53.706;10.384;2023-02-15T11:56:25;4.60;99.90
18934;DHT22;9599;53.706;10.384;2023-02-15T11:58:57;4.50;99.90
18934;DHT22;9599;53.706;10.384;2023-02-15T12:01:31;4.50;99.90
18934;DHT22;9599;53.706;10.384;2023-02-15T12:04:04;4.60;99.90
18934;DHT22;9599;53.706;10.384;2023-02-15T12:06:37;4.70;99.90
18934;DHT22;9599;53.706;10.384;2023-02-15T12:09:13;4.80;99.90
18934;DHT22;9599;53.706;10.384;2023-02-15T12:11:48;4.90;99.90
18934;DHT22;9599;53.706;10.384;2023-02-15T12:14:16;4.90;99.90
18934;DHT22;9599;53.706;10.384;2023-02-15T12:16:48;5.00;99.90
18934;DHT22;9599;53.706;10.384;2023-02-15T12:19:27;5.00;99.90
18934;DHT22;9599;53.706;10.384;2023-02-15T12:21:57;5.00;99.90
18934;DHT22;9599;53.706;10.384;2023-02-15T12:24:28;5.10;99.90
18934;DHT22;9599;53.706;10.384;2023-02-15T12:26:58;5.10;99.90
18934;DHT22;9599;53.706;10.384;2023-02-15T12:29:30;5.10;99.90
18934;DHT22;9599;53.706;10.384;2023-02-15T12:31:59;5.00;99.90
18934;DHT22;9599;53.706;10.384;2023-02-15T12:34:30;5.00;99.90
18934;DHT22;9599;53.706;10.384;2023-02-15T12:37:02;5.20;99.90
18934;DHT22;9599;53.706;10.384;2023-02-15T12:39:35;5.20;99.90
18934;DHT22;9599;53.706;10.384;2023-02-15T12:42:13;5.30;99.90
18934;DHT22;9599;53.706;10.384;2023-02-15T12:44:54;5.40;99.90
18934;DHT22;9599;53.706;10.384;2023-02-15T12:47:24;5.50;99.90
18934;DHT22;9599;53.706;10.384;2023-02-15T12:50:12;5.40;99.90
18934;DHT22;9599;53.706;10.384;2023-02-15T12:52:45;5.40;99.90
18934;DHT22;9599;53.706;10.384;2023-02-15T12:55:23;5.40;99.90
18934;DHT22;9599;53.706;10.384;2023-02-15T12:58:15;5.40;99.90
18934;DHT22;9599;53.706;10.384;2023-02-15T13:00:44;5.50;99.90
18934;DHT22;9599;53.706;10.384;2023-02-15T13:03:18;5.50;99.90
18934;DHT22;9599;53.706;10.384;2023-02-15T13:05:50;5.40;99.90
18934;DHT22;9599;53.706;10.384;2023-02-15T13:08:21;5.50;99.90
18934;DHT22;9599;53.706;10.384;2023-02-15T13:10:54;5.50;99.90
18934;DHT22;9599;53.706;10.384;2023-02-15T13:13:26;5.70;99.90
18934;DHT22;9599;53.706;10.384;2023-02-15T13:15:57;5.90;99.90
18934;DHT22;9599;53.706;10.384;2023-02-15T13:18:31;6.10;99.90
18934;DHT22;9599;53.706;10.384;2023-02-15T13:21:09;6.10;99.90
18934;DHT22;9599;53.706;10.384;2023-02-15T13:23:41;6.20;99.90
18934;DHT22;9599;53.706;10.384;2023-02-15T13:26:15;6.20;99.90
18934;DHT22;9599;53.706;10.384;2023-02-15T13:28:47;6.10;99.90
18934;DHT22;9599;53.706;10.384;2023-02-15T13:31:18;6.10;99.90
18934;DHT22;9599;53.706;10.384;2023-02-15T13:33:51;6.20;99.90
18934;DHT22;9599;53.706;10.384;2023-02-15T13:36:23;6.30;99.90
18934;DHT22;9599;53.706;10.384;2023-02-15T13:39:10;6.40;99.90
18934;DHT22;9599;53.706;10.384;2023-02-15T13:41:54;6.30;99.90
18934;DHT22;9599;53.706;10.384;2023-02-15T13:44:34;6.30;99.90
18934;DHT22;9599;53.706;10.384;2023-02-15T13:47:15;6.40;99.90
18934;DHT22;9599;53.706;10.384;2023-02-15T13:49:57;6.40;99.90
18934;DHT22;9599;53.706;10.384;2023-02-15T13:52:28;6.20;99.90
18934;DHT22;9599;53.706;10.384;2023-02-15T13:55:11;6.20;99.90
18934;DHT22;9599;53.706;10.384;2023-02-15T13:57:57;6.30;99.90
18934;DHT22;9599;53.706;10.384;2023-02-15T14:00:38;6.20;99.90
18934;DHT22;9599;53.706;10.384;2023-02-15T14:03:27;6.20;99.90
18934;DHT22;9599;53.706;10.384;2023-02-15T14:06:50;6.10;99.90
18934;DHT22;9599;53.706;10.384;2023-02-15T14:09:30;6.20;99.90
18934;DHT22;9599;53.706;10.384;2023-02-15T14:12:21;6.20;99.90
18934;DHT22;9599;53.706;10.384;2023-02-15T14:15:08;6.10;99.90
18934;DHT22;9599;53.706;10.384;2023-02-15T14:17:46;6.20;99.90
18934;DHT22;9599;53.706;10.384;2023-02-15T14:20:21;6.20;99.90
18934;DHT22;9599;53.706;10.384;2023-02-15T14:23:00;6.20;99.90
18934;DHT22;9599;53.706;10.384;2023-02-15T14:25:37;6.30;99.90
18934;DHT22;9599;53.706;10.384;2023-02-15T14:28:09;6.30;99.90
18934;DHT22;9599;53.706;10.384;2023-02-15T14:30:40;6.30;99.90
18934;DHT22;9599;53.706;10.384;2023-02-15T14:33:33;6.40;99.90
18934;DHT22;9599;53.706;10.384;2023-02-15T14:36:05;6.50;99.90
18934;DHT22;9599;53.706;10.384;2023-02-15T14:38:47;6.60;99.90
18934;DHT22;9599;53.706;10.384;2023-02-15T14:41:18;6.60;99.90
18934;DHT22;9599;53.706;10.384;2023-02-15T14:43:54;6.50;99.90
18934;DHT22;9599;53.706;10.384;2023-02-15T14:46:29;6.40;99.90
18934;DHT22;9599;53.706;10.384;2023-02-15T14:49:06;6.30;99.90
18934;DHT22;9599;53.706;10.384;2023-02-15T14:51:57;6.30;99.90
18934;DHT22;9599;53.706;10.384;2023-02-15T14:57:34;6.40;99.90
18934;DHT22;9599;53.706;10.384;2023-02-15T15:00:36;6.30;99.90
18934;DHT22;9599;53.706;10.384;2023-02-15T15:03:20;6.30;99.90
18934;DHT22;9599;53.706;10.384;2023-02-15T15:05:51;6.30;99.90
18934;DHT22;9599;53.706;10.384;2023-02-15T15:08:29;6.50;99.90
18934;DHT22;9599;53.706;10.384;2023-02-15T15:11:37;6.60;99.90
18934;DHT22;9599;53.706;10.384;2023-02-15T15:14:38;6.60;99.90
18934;DHT22;9599;53.706;10.384;2023-02-15T15:17:10;6.50;99.90
18934;DHT22;9599;53.706;10.384;2023-02-15T15:20:04;6.50;99.90
18934;DHT22;9599;53.706;10.384;2023-02-15T15:22:35;6.50;99.90
18934;DHT22;9599;53.706;10.384;2023-02-15T15:25:08;6.60;99.90
18934;DHT22;9599;53.706;10.384;2023-02-15T15:27:48;6.60;99.90
18934;DHT22;9599;53.706;10.384;2023-02-15T15:36:42;6.60;99.90
18934;DHT22;9599;53.706;10.384;2023-02-15T15:42:26;6.60;99.90
18934;DHT22;9599;53.706;10.384;2023-02-15T15:45:30;6.50;99.90
18934;DHT22;9599;53.706;10.384;2023-02-15T15:48:15;6.50;99.90
18934;DHT22;9599;53.706;10.384;2023-02-15T15:50:47;6.40;99.90
18934;DHT22;9599;53.706;10.384;2023-02-15T15:53:22;6.40;99.90
18934;DHT22;9599;53.706;10.384;2023-02-15T15:55:53;6.40;99.90
18934;DHT22;9599;53.706;10.384;2023-02-15T15:58:24;6.40;99.90
18934;DHT22;9599;53.706;10.384;2023-02-15T16:00:54;6.30;99.90
18934;DHT22;9599;53.706;10.384;2023-02-15T16:03:26;6.30;99.90
18934;DHT22;9599;53.706;10.384;2023-02-15T16:05:55;6.20;99.90
18934;DHT22;9599;53.706;10.384;2023-02-15T16:08:30;6.20;99.90
18934;DHT22;9599;53.706;10.384;2023-02-15T16:10:59;6.20;99.90
18934;DHT22;9599;53.706;10.384;2023-02-15T16:13:27;6.20;99.90
18934;DHT22;9599;53.706;10.384;2023-02-15T16:15:56;6.20;99.90
18934;DHT22;9599;53.706;10.384;2023-02-15T16:18:26;6.10;99.90
18934;DHT22;9599;53.706;10.384;2023-02-15T16:20:58;6.10;99.90
18934;DHT22;9599;53.706;10.384;2023-02-15T16:23:46;6.00;99.90
18934;DHT22;9599;53.706;10.384;2023-02-15T16:26:29;6.00;99.90
18934;DHT22;9599;53.706;10.384;2023-02-15T16:29:01;6.00;99.90
18934;DHT22;9599;53.706;10.384;2023-02-15T16:31:29;6.00;99.90
18934;DHT22;9599;53.706;10.384;2023-02-15T16:33:57;5.90;99.90
18934;DHT22;9599;53.706;10.384;2023-02-15T16:36:27;5.90;99.90
18934;DHT22;9599;53.706;10.384;2023-02-15T16:39:17;5.90;99.90
18934;DHT22;9599;53.706;10.384;2023-02-15T16:41:47;5.90;99.90
18934;DHT22;9599;53.706;10.384;2023-02-15T16:44:18;5.90;99.90